フォークランド諸島 の空港の天気 - METARとTAF

マウント・プレザント空軍基地 ( EGYP / MPN ) - フォークランド諸島 フォークランド諸島
飛行場実況気象(Metar)
観測時間02/17 19:50 FKST (02/17 22:50 UTC)
風向・風速西北西 4m/s
視程10km以上
天気現象
少しの雲 雲底高度 1070m
全天の8割程度の雲 雲底高度 2040m
気温13℃
湿度62%
気圧996hPa
METAREGYP 172250Z 29008KT 9999 FEW035 BKN067 13/06 Q0996 BLU NOSIG
過去の天気等 Google飛行場航空写真 Wunderground天気予報

過去48時間のMETAR

飛行場予報(TAF)
発表時間: 2/17 16:34 FKST (2/17 19:34 UTC)
予報対象時間: 17日18時 FKST ~ 18日12時 FKST
風向・風速西北西 7m/s
視程10km以上
全天の4割程度の雲 雲底高度 910m
17日18時 FKST から 確率 30% で
風向・風速北西 8m/s 瞬間風速 13m/s
17日21時 FKST ~ 17日24時 FKST に 確率 30% で一時的に
全天の4割程度の雲 雲底高度 460m
18日0時 FKST ~ 18日9時 FKST に一時的に
視程6000m
天気現象
全天の8割程度の雲 雲底高度 210m
18日1時 FKST ~ 18日9時 FKST に 確率 40% で一時的に
視程3500m
天気現象強い雨
全天の4割程度の雲 雲底高度 150m
18日9時 FKST ~ 18日11時 FKST に徐々に
全天の4割程度の雲 雲底高度 460m
TAF EGYP 171934Z 1721/1815 30014KT 9999 SCT030
PROB30 1721/1722 31015G25KT
PROB30 TEMPO 1800/1803 SCT015
TEMPO 1803/1812 6000 RA BKN007
PROB40 TEMPO 1804/1812 3500 +RA SCT005
BECMG 1812/1814 SCT015